Historique des mesures à Cassis (13260), France
Quotidien Résumé Décembre 20, 2017 Unités:  Métrique    US   Métrique/US
« Précédent (Jour)
Suivant (Jour) »
Quotidien Hebdomadaire Mensuel Annuel Période au choix
  Maximum: Minimum: Moyenne:
Température: TemperatureC °C 6.1 °C 7.1 °C
Point de rosée: DewpointC °C -0.8 °C 1.6 °C
Humidité: Humidity % 60 % 64 %
Vitesse du vent: 0 km/h 0 km/h 0 km/h
Rafales: 0 km/h - -
Vent:- - North
Pression: PressurehPa hPa 1024.3 hPa -
Précipitations: 0.0 mm    
Historical Graphs
 
 
Mesures pour : Décembre 20, 2017
Heure Temperature Point de rosée Pression Vent Vitesse du vent Rafales Humidité Pluie (par heure) Conditions
TemperatureC °C DewpointC °C PressurehPa hPa Calm     Humidity % HourlyPrecipMM mm SoftwareType W/m2
00:10 6.4 °C 0.5 °C 1027.7 hPa Calm     66 % 0.0 mm open2300-1.11 W/m2
01:10 6.6 °C 0.9 °C 1027.0 hPa Calm     67 % 0.0 mm open2300-1.11 W/m2
03:10 6.4 °C 0.1 °C 1025.6 hPa Calm     64 % 0.0 mm open2300-1.11 W/m2
05:10 6.4 °C -0.4 °C 1024.3 hPa Calm     62 % 0.0 mm open2300-1.11 W/m2
06:10 6.2 °C -0.6 °C 1024.3 hPa Calm     62 % 0.0 mm open2300-1.11 W/m2
07:10 6.4 °C -0.8 °C 1024.3 hPa Calm     60 % 0.0 mm open2300-1.11 W/m2
08:10 6.5 °C -0.7 °C 1024.6 hPa Calm     60 % 0.0 mm open2300-1.11 W/m2
09:10 6.8 °C -0.4 °C 1025.6 hPa Calm     60 % 0.0 mm open2300-1.11 W/m2
10:10 7.4 °C 0.2 °C 1026.6 hPa Calm     60 % 0.0 mm open2300-1.11 W/m2
11:10 8.2 °C 1.3 °C 1027.7 hPa Calm     62 % 0.0 mm open2300-1.11 W/m2
12:10 8.2 °C 2.7 °C 1027.3 hPa Calm     68 % 0.0 mm open2300-1.11 W/m2
13:10 9.2 °C 3.8 °C 1027.3 hPa Calm     69 % 0.0 mm open2300-1.11 W/m2
14:10 9.8 °C 4.2 °C 1027.3 hPa Calm     68 % 0.0 mm open2300-1.11 W/m2
15:10 9.8 °C 4.2 °C 1028.3 hPa Calm     68 % 0.0 mm open2300-1.11 W/m2
16:10 9.5 °C 3.9 °C 1028.7 hPa Calm   5.1 km/h 68 % 0.0 mm open2300-1.11 W/m2
17:10 8.5 °C 3.1 °C 1029.0 hPa Calm     69 % 0.0 mm open2300-1.11 W/m2
18:10 7.6 °C 2.9 °C 1029.7 hPa Calm     72 % 0.0 mm open2300-1.11 W/m2
19:10 6.9 °C 2.4 °C 1029.7 hPa Calm     73 % 0.0 mm open2300-1.11 W/m2
20:11 6.5 °C 2.4 °C 1029.7 hPa Calm     75 % 0.0 mm open2300-1.11 W/m2
21:11 6.1 °C 2.2 °C 1030.0 hPa Calm     76 % 0.0 mm open2300-1.11 W/m2
22:10 6.1 °C 2.2 °C 1029.7 hPa Calm     76 % 0.0 mm open2300-1.11 W/m2
23:10 6.9 °C 2.4 °C 1030.0 hPa Calm     73 % 0.0 mm open2300-1.11 W/m2
Observations météo à CASSIS
WU-History script by Weather Underground - 1 mb